메인 페이지
METAR-TAF:

METAR-TAF

공항 :

워털루, 아이오와, 미국

위도: 42-33-16N, 경도: 092-24-04W, 고도: 266m

현재 날씨관측

예보는 51분 전, 16:54시(UTC)에 발표되었습니다.
남동7kt
온도 12°C
습도 35%
기압 1022 hPa
시정: 16.1km
맑음

METAR: KALO 051654Z 14007KT 10SM CLR 12/M03 A3018 RMK AO2 SLP225 T01171033

시각: 12:45 (17:45 UTC)

예보

예보는 20분 전, 17:25시(UTC)에 발표되었습니다.
예보 대상 시간: 05일 18시부터 06일 18시까지 (UTC)
남남동7kt
시정: 10km
맑음
06일 1000시부터 (UTC)
남동7kt
시정: 10km
고도 3000ft 상공 흐림
06일 1300시부터 (UTC)
남동9kt
시정: 10km
고도 1500ft 상공 흐림
06일 1500시부터 (UTC)
남남동9kt
시정: 8.0km
고도 800ft 상공 흐림
약한비, 박무

TAF: KALO 051725Z 0518/0618 15007KT P6SM SKC FM061000 14007KT P6SM OVC030 FM061300 14009KT P6SM OVC015 FM061500 15009KT 5SM -RA BR OVC008

4,000개 이상의 공항 관측 자료 및 예보 (METAR 및 TAF 보고).

지도상에서 검색 가능한 기상관측소가 노란 점과 빨간 점으로 표시되어 있습니다.

기상관측소 명을 보려면 표시 위로 마우스를 이동하세요.

날씨 관측과 예보를 보려면 클릭하세요.

지도 변경 : 확대하려면 엑스 표시가 있는 녹색 버튼, 축소하려면 빼기 표시가 있는 녹색 버튼, 다음 페이지의 지도를 보려면 녹색 화살표를 클릭하세요.


METAR-TAF: